sensor_id;sensor_type;location;lat;lon;timestamp;temperature;humidity
70593;DHT22;58294;42.988;20.338;2023-03-11T00:00:56;205.70;2252.80
70593;DHT22;58294;42.988;20.338;2023-03-11T00:03:21;205.70;2252.80
70593;DHT22;58294;42.988;20.338;2023-03-11T00:05:48;230.40;2252.80
70593;DHT22;58294;42.988;20.338;2023-03-11T00:08:16;230.40;2252.80
70593;DHT22;58294;42.988;20.338;2023-03-11T00:10:43;230.40;2252.80
70593;DHT22;58294;42.988;20.338;2023-03-11T00:13:10;230.40;2252.80
70593;DHT22;58294;42.988;20.338;2023-03-11T00:15:36;230.50;2252.80
70593;DHT22;58294;42.988;20.338;2023-03-11T00:18:01;230.50;2252.80
70593;DHT22;58294;42.988;20.338;2023-03-11T00:20:34;230.50;2252.80
70593;DHT22;58294;42.988;20.338;2023-03-11T00:23:00;230.50;2252.80
70593;DHT22;58294;42.988;20.338;2023-03-11T00:25:27;230.50;2252.80
70593;DHT22;58294;42.988;20.338;2023-03-11T00:27:53;230.50;2252.80
70593;DHT22;58294;42.988;20.338;2023-03-11T00:30:19;230.50;2252.80
70593;DHT22;58294;42.988;20.338;2023-03-11T00:32:49;230.50;2252.80
70593;DHT22;58294;42.988;20.338;2023-03-11T00:35:16;230.40;2252.80
70593;DHT22;58294;42.988;20.338;2023-03-11T00:37:43;230.40;2252.80
70593;DHT22;58294;42.988;20.338;2023-03-11T00:40:11;230.40;2252.80
70593;DHT22;58294;42.988;20.338;2023-03-11T00:42:37;230.40;2252.80
70593;DHT22;58294;42.988;20.338;2023-03-11T00:45:02;230.40;2252.80
70593;DHT22;58294;42.988;20.338;2023-03-11T00:47:28;205.70;2252.80
70593;DHT22;58294;42.988;20.338;2023-03-11T00:49:54;205.70;2252.80
70593;DHT22;58294;42.988;20.338;2023-03-11T00:52:19;205.70;2252.80
70593;DHT22;58294;42.988;20.338;2023-03-11T00:54:45;205.70;2252.80
70593;DHT22;58294;42.988;20.338;2023-03-11T00:57:10;230.40;2252.80
70593;DHT22;58294;42.988;20.338;2023-03-11T00:59:36;205.70;2252.80
70593;DHT22;58294;42.988;20.338;2023-03-11T01:02:01;230.40;2252.80
70593;DHT22;58294;42.988;20.338;2023-03-11T01:04:27;230.40;2252.80
70593;DHT22;58294;42.988;20.338;2023-03-11T01:06:53;230.40;2252.80
70593;DHT22;58294;42.988;20.338;2023-03-11T01:09:18;230.40;2252.80
70593;DHT22;58294;42.988;20.338;2023-03-11T01:11:44;230.40;2252.80
70593;DHT22;58294;42.988;20.338;2023-03-11T01:14:09;230.40;2252.80
70593;DHT22;58294;42.988;20.338;2023-03-11T01:16:35;230.40;2252.80
70593;DHT22;58294;42.988;20.338;2023-03-11T01:19:00;230.40;2252.80
70593;DHT22;58294;42.988;20.338;2023-03-11T01:21:26;230.40;2252.80
70593;DHT22;58294;42.988;20.338;2023-03-11T01:23:54;230.40;2252.80
70593;DHT22;58294;42.988;20.338;2023-03-11T01:26:20;230.40;2252.80
70593;DHT22;58294;42.988;20.338;2023-03-11T01:28:45;230.40;2252.80
70593;DHT22;58294;42.988;20.338;2023-03-11T01:31:11;230.40;2252.80
70593;DHT22;58294;42.988;20.338;2023-03-11T01:33:37;230.50;2252.80
70593;DHT22;58294;42.988;20.338;2023-03-11T01:36:02;230.50;2252.80
70593;DHT22;58294;42.988;20.338;2023-03-11T01:38:28;230.50;2252.80
70593;DHT22;58294;42.988;20.338;2023-03-11T01:40:54;230.50;2252.80
70593;DHT22;58294;42.988;20.338;2023-03-11T01:46:06;230.50;2252.80
70593;DHT22;58294;42.988;20.338;2023-03-11T01:48:32;230.50;2252.80
70593;DHT22;58294;42.988;20.338;2023-03-11T01:50:57;230.50;2252.80
70593;DHT22;58294;42.988;20.338;2023-03-11T01:53:23;230.60;2252.80
70593;DHT22;58294;42.988;20.338;2023-03-11T01:55:49;230.60;2252.80
70593;DHT22;58294;42.988;20.338;2023-03-11T01:58:22;230.60;2252.80
70593;DHT22;58294;42.988;20.338;2023-03-11T02:00:48;230.60;2252.80
70593;DHT22;58294;42.988;20.338;2023-03-11T02:03:18;230.60;2252.80
70593;DHT22;58294;42.988;20.338;2023-03-11T02:05:45;230.60;2252.80
70593;DHT22;58294;42.988;20.338;2023-03-11T02:08:11;230.60;2252.80
70593;DHT22;58294;42.988;20.338;2023-03-11T02:10:37;230.60;2252.80
70593;DHT22;58294;42.988;20.338;2023-03-11T02:13:05;230.70;2252.80
70593;DHT22;58294;42.988;20.338;2023-03-11T02:15:30;230.70;2252.80
70593;DHT22;58294;42.988;20.338;2023-03-11T02:17:56;230.70;2252.80
70593;DHT22;58294;42.988;20.338;2023-03-11T02:22:50;230.70;2252.80
70593;DHT22;58294;42.988;20.338;2023-03-11T02:25:33;230.70;2252.80
70593;DHT22;58294;42.988;20.338;2023-03-11T02:28:00;230.70;2252.80
70593;DHT22;58294;42.988;20.338;2023-03-11T02:30:26;230.70;2252.80
70593;DHT22;58294;42.988;20.338;2023-03-11T02:32:52;230.70;2252.80
70593;DHT22;58294;42.988;20.338;2023-03-11T02:35:19;230.70;2252.80
70593;DHT22;58294;42.988;20.338;2023-03-11T02:37:49;230.70;2252.80
70593;DHT22;58294;42.988;20.338;2023-03-11T02:42:48;230.60;2252.80
70593;DHT22;58294;42.988;20.338;2023-03-11T02:45:15;230.60;2252.80
70593;DHT22;58294;42.988;20.338;2023-03-11T02:47:42;230.60;2252.80
70593;DHT22;58294;42.988;20.338;2023-03-11T02:50:09;230.50;2252.80
70593;DHT22;58294;42.988;20.338;2023-03-11T02:52:35;230.50;2252.80
70593;DHT22;58294;42.988;20.338;2023-03-11T02:55:01;230.40;2252.80
70593;DHT22;58294;42.988;20.338;2023-03-11T02:57:27;230.40;2252.80
70593;DHT22;58294;42.988;20.338;2023-03-11T02:59:52;230.40;2252.80
70593;DHT22;58294;42.988;20.338;2023-03-11T03:02:18;205.70;2252.80
70593;DHT22;58294;42.988;20.338;2023-03-11T03:04:44;205.60;2252.80
70593;DHT22;58294;42.988;20.338;2023-03-11T03:07:09;205.50;2252.80
70593;DHT22;58294;42.988;20.338;2023-03-11T03:09:35;205.40;2252.80
70593;DHT22;58294;42.988;20.338;2023-03-11T03:12:01;205.40;2252.80
70593;DHT22;58294;42.988;20.338;2023-03-11T03:14:26;205.30;2252.80
70593;DHT22;58294;42.988;20.338;2023-03-11T03:16:52;205.30;2252.80
70593;DHT22;58294;42.988;20.338;2023-03-11T03:19:18;205.20;2252.80
70593;DHT22;58294;42.988;20.338;2023-03-11T03:21:44;205.20;2252.80
70593;DHT22;58294;42.988;20.338;2023-03-11T03:24:09;205.10;2252.80
70593;DHT22;58294;42.988;20.338;2023-03-11T03:26:35;205.00;2252.80
70593;DHT22;58294;42.988;20.338;2023-03-11T03:29:01;205.00;2252.80
70593;DHT22;58294;42.988;20.338;2023-03-11T03:31:26;205.00;2252.80
70593;DHT22;58294;42.988;20.338;2023-03-11T03:33:52;205.10;2252.80
70593;DHT22;58294;42.988;20.338;2023-03-11T03:36:17;205.10;2252.80
70593;DHT22;58294;42.988;20.338;2023-03-11T03:38:43;205.20;2252.80
70593;DHT22;58294;42.988;20.338;2023-03-11T03:41:09;205.20;2252.80
70593;DHT22;58294;42.988;20.338;2023-03-11T03:43:34;205.30;2252.80
70593;DHT22;58294;42.988;20.338;2023-03-11T03:46:01;205.30;2252.80
70593;DHT22;58294;42.988;20.338;2023-03-11T03:48:27;205.30;2252.80
70593;DHT22;58294;42.988;20.338;2023-03-11T03:50:53;205.30;2252.80
70593;DHT22;58294;42.988;20.338;2023-03-11T03:53:19;205.40;2252.80
70593;DHT22;58294;42.988;20.338;2023-03-11T03:55:45;205.40;2252.80
70593;DHT22;58294;42.988;20.338;2023-03-11T03:58:10;205.50;2252.80
70593;DHT22;58294;42.988;20.338;2023-03-11T04:00:36;205.50;2252.80
70593;DHT22;58294;42.988;20.338;2023-03-11T04:03:02;205.50;2252.80
70593;DHT22;58294;42.988;20.338;2023-03-11T04:05:28;205.50;2252.80
70593;DHT22;58294;42.988;20.338;2023-03-11T04:07:53;205.50;2252.80
70593;DHT22;58294;42.988;20.338;2023-03-11T04:10:19;205.40;2252.80
70593;DHT22;58294;42.988;20.338;2023-03-11T04:12:44;205.40;2252.80
70593;DHT22;58294;42.988;20.338;2023-03-11T04:15:10;205.30;2252.80
70593;DHT22;58294;42.988;20.338;2023-03-11T04:17:36;205.30;2252.80
70593;DHT22;58294;42.988;20.338;2023-03-11T04:20:02;205.30;2252.80
70593;DHT22;58294;42.988;20.338;2023-03-11T04:22:27;205.30;2252.80
70593;DHT22;58294;42.988;20.338;2023-03-11T04:24:53;205.30;2252.80
70593;DHT22;58294;42.988;20.338;2023-03-11T04:27:19;205.30;2252.80
70593;DHT22;58294;42.988;20.338;2023-03-11T04:29:44;205.20;2252.80
70593;DHT22;58294;42.988;20.338;2023-03-11T04:32:10;205.20;2252.80
70593;DHT22;58294;42.988;20.338;2023-03-11T04:34:35;205.20;2252.80
70593;DHT22;58294;42.988;20.338;2023-03-11T04:37:01;205.20;2252.80
70593;DHT22;58294;42.988;20.338;2023-03-11T04:39:26;205.20;2252.80
70593;DHT22;58294;42.988;20.338;2023-03-11T04:41:52;205.10;2252.80
70593;DHT22;58294;42.988;20.338;2023-03-11T04:44:18;205.10;2252.80
70593;DHT22;58294;42.988;20.338;2023-03-11T04:46:43;205.00;2252.80
70593;DHT22;58294;42.988;20.338;2023-03-11T04:49:09;205.00;2252.80
70593;DHT22;58294;42.988;20.338;2023-03-11T04:51:34;205.00;2252.80
70593;DHT22;58294;42.988;20.338;2023-03-11T04:54:00;204.90;2252.80
70593;DHT22;58294;42.988;20.338;2023-03-11T04:56:25;204.90;2252.80
70593;DHT22;58294;42.988;20.338;2023-03-11T04:58:51;204.90;2252.80
70593;DHT22;58294;42.988;20.338;2023-03-11T05:01:16;205.00;2252.80
70593;DHT22;58294;42.988;20.338;2023-03-11T05:03:42;205.00;2252.80
70593;DHT22;58294;42.988;20.338;2023-03-11T05:06:08;205.00;2252.80
70593;DHT22;58294;42.988;20.338;2023-03-11T05:08:33;205.10;2252.80
70593;DHT22;58294;42.988;20.338;2023-03-11T05:10:59;205.10;2252.80
70593;DHT22;58294;42.988;20.338;2023-03-11T05:13:25;205.20;2252.80
70593;DHT22;58294;42.988;20.338;2023-03-11T05:15:50;205.30;2252.80
70593;DHT22;58294;42.988;20.338;2023-03-11T05:18:16;205.30;2252.80
70593;DHT22;58294;42.988;20.338;2023-03-11T05:20:41;205.30;2252.80
70593;DHT22;58294;42.988;20.338;2023-03-11T05:23:07;205.30;2252.80
70593;DHT22;58294;42.988;20.338;2023-03-11T05:25:33;205.40;2252.80
70593;DHT22;58294;42.988;20.338;2023-03-11T05:27:59;205.40;2252.80
70593;DHT22;58294;42.988;20.338;2023-03-11T05:30:25;205.50;2252.80
70593;DHT22;58294;42.988;20.338;2023-03-11T05:32:51;205.50;2252.80
70593;DHT22;58294;42.988;20.338;2023-03-11T05:35:17;205.60;2252.80
70593;DHT22;58294;42.988;20.338;2023-03-11T05:37:42;205.60;2252.80
70593;DHT22;58294;42.988;20.338;2023-03-11T05:40:09;205.70;2252.80
70593;DHT22;58294;42.988;20.338;2023-03-11T05:42:35;205.60;2252.80
70593;DHT22;58294;42.988;20.338;2023-03-11T05:45:01;205.70;2252.80
70593;DHT22;58294;42.988;20.338;2023-03-11T05:47:26;230.40;2252.80
70593;DHT22;58294;42.988;20.338;2023-03-11T05:49:52;230.40;2252.80
70593;DHT22;58294;42.988;20.338;2023-03-11T05:52:17;230.40;2252.80
70593;DHT22;58294;42.988;20.338;2023-03-11T05:54:43;230.40;2252.80
70593;DHT22;58294;42.988;20.338;2023-03-11T05:57:08;230.40;2252.80
70593;DHT22;58294;42.988;20.338;2023-03-11T05:59:34;230.40;2252.80
70593;DHT22;58294;42.988;20.338;2023-03-11T06:02:01;230.40;2252.80
70593;DHT22;58294;42.988;20.338;2023-03-11T06:04:27;230.50;2252.80
70593;DHT22;58294;42.988;20.338;2023-03-11T06:06:53;230.50;2252.80
70593;DHT22;58294;42.988;20.338;2023-03-11T06:09:18;230.50;2252.80
70593;DHT22;58294;42.988;20.338;2023-03-11T06:11:44;230.60;2252.80
70593;DHT22;58294;42.988;20.338;2023-03-11T06:14:10;230.60;2252.80
70593;DHT22;58294;42.988;20.338;2023-03-11T06:16:35;230.60;2252.80
70593;DHT22;58294;42.988;20.338;2023-03-11T06:19:01;230.60;2252.80
70593;DHT22;58294;42.988;20.338;2023-03-11T06:21:27;230.60;2252.80
70593;DHT22;58294;42.988;20.338;2023-03-11T06:23:52;230.60;2252.80
70593;DHT22;58294;42.988;20.338;2023-03-11T06:26:19;230.60;2252.80
70593;DHT22;58294;42.988;20.338;2023-03-11T06:28:45;230.70;2252.80
70593;DHT22;58294;42.988;20.338;2023-03-11T06:31:15;230.70;2252.80
70593;DHT22;58294;42.988;20.338;2023-03-11T06:33:42;230.80;2252.80
70593;DHT22;58294;42.988;20.338;2023-03-11T06:36:07;230.80;2252.80
70593;DHT22;58294;42.988;20.338;2023-03-11T06:38:33;230.90;2252.80
70593;DHT22;58294;42.988;20.338;2023-03-11T06:40:59;231.00;2252.80
70593;DHT22;58294;42.988;20.338;2023-03-11T06:43:25;231.00;2252.80
70593;DHT22;58294;42.988;20.338;2023-03-11T06:45:51;230.80;2252.80
70593;DHT22;58294;42.988;20.338;2023-03-11T06:48:17;230.80;2252.80
70593;DHT22;58294;42.988;20.338;2023-03-11T06:50:42;230.70;2252.80
70593;DHT22;58294;42.988;20.338;2023-03-11T06:53:08;230.70;2252.80
70593;DHT22;58294;42.988;20.338;2023-03-11T06:55:34;230.70;2252.80
70593;DHT22;58294;42.988;20.338;2023-03-11T06:57:59;230.80;2252.80
70593;DHT22;58294;42.988;20.338;2023-03-11T07:00:25;230.80;2252.80
70593;DHT22;58294;42.988;20.338;2023-03-11T07:02:51;230.90;2252.80
70593;DHT22;58294;42.988;20.338;2023-03-11T07:05:16;231.00;2252.80
70593;DHT22;58294;42.988;20.338;2023-03-11T07:07:42;231.20;2252.80
70593;DHT22;58294;42.988;20.338;2023-03-11T07:10:08;231.30;2252.80
70593;DHT22;58294;42.988;20.338;2023-03-11T07:12:34;256.00;2252.80
70593;DHT22;58294;42.988;20.338;2023-03-11T07:14:59;256.00;2252.80
70593;DHT22;58294;42.988;20.338;2023-03-11T07:17:25;256.10;2252.80
70593;DHT22;58294;42.988;20.338;2023-03-11T07:19:51;256.30;2252.80
70593;DHT22;58294;42.988;20.338;2023-03-11T07:22:17;256.30;2252.80
70593;DHT22;58294;42.988;20.338;2023-03-11T07:24:46;256.50;2252.80
70593;DHT22;58294;42.988;20.338;2023-03-11T07:27:12;256.70;2252.80
70593;DHT22;58294;42.988;20.338;2023-03-11T07:29:37;281.60;2278.40
70593;DHT22;58294;42.988;20.338;2023-03-11T07:32:03;281.70;2278.40
70593;DHT22;58294;42.988;20.338;2023-03-11T07:34:29;281.80;2278.40
70593;DHT22;58294;42.988;20.338;2023-03-11T07:36:54;281.90;2278.40
70593;DHT22;58294;42.988;20.338;2023-03-11T07:39:20;282.00;2278.40
70593;DHT22;58294;42.988;20.338;2023-03-11T07:41:46;282.10;2278.40
70593;DHT22;58294;42.988;20.338;2023-03-11T07:44:12;282.30;2278.40
70593;DHT22;58294;42.988;20.338;2023-03-11T07:46:38;307.20;2304.00
70593;DHT22;58294;42.988;20.338;2023-03-11T07:49:04;307.30;2304.00
70593;DHT22;58294;42.988;20.338;2023-03-11T07:51:30;307.50;2304.00
70593;DHT22;58294;42.988;20.338;2023-03-11T07:56:23;307.90;2304.00
70593;DHT22;58294;42.988;20.338;2023-03-11T07:58:50;308.00;2304.00
70593;DHT22;58294;42.988;20.338;2023-03-11T08:01:16;332.90;2329.60
70593;DHT22;58294;42.988;20.338;2023-03-11T08:03:43;333.00;2329.60
70593;DHT22;58294;42.988;20.338;2023-03-11T08:06:18;333.10;2329.60
70593;DHT22;58294;42.988;20.338;2023-03-11T08:08:45;333.20;2329.60
70593;DHT22;58294;42.988;20.338;2023-03-11T08:11:11;333.40;2329.60
70593;DHT22;58294;42.988;20.338;2023-03-11T08:13:40;333.50;2329.60
70593;DHT22;58294;42.988;20.338;2023-03-11T08:16:06;333.40;2329.60
70593;DHT22;58294;42.988;20.338;2023-03-11T08:18:32;333.50;2329.60
70593;DHT22;58294;42.988;20.338;2023-03-11T08:20:58;333.50;2329.60
70593;DHT22;58294;42.988;20.338;2023-03-11T08:23:24;333.50;2329.60
70593;DHT22;58294;42.988;20.338;2023-03-11T08:25:49;358.50;2329.60
70593;DHT22;58294;42.988;20.338;2023-03-11T08:28:15;358.60;2329.60
70593;DHT22;58294;42.988;20.338;2023-03-11T08:30:41;358.70;2329.60
70593;DHT22;58294;42.988;20.338;2023-03-11T08:33:06;358.60;2329.60
70593;DHT22;58294;42.988;20.338;2023-03-11T08:35:32;358.50;2329.60
70593;DHT22;58294;42.988;20.338;2023-03-11T08:37:58;358.40;2329.60
70593;DHT22;58294;42.988;20.338;2023-03-11T08:40:23;358.40;2329.60
70593;DHT22;58294;42.988;20.338;2023-03-11T08:42:49;333.70;2329.60
70593;DHT22;58294;42.988;20.338;2023-03-11T08:45:14;333.70;2329.60
70593;DHT22;58294;42.988;20.338;2023-03-11T08:47:40;333.60;2329.60
70593;DHT22;58294;42.988;20.338;2023-03-11T08:50:08;333.50;2329.60
70593;DHT22;58294;42.988;20.338;2023-03-11T08:52:35;333.50;2329.60
70593;DHT22;58294;42.988;20.338;2023-03-11T08:55:01;333.50;2329.60
70593;DHT22;58294;42.988;20.338;2023-03-11T08:57:29;333.50;2329.60
70593;DHT22;58294;42.988;20.338;2023-03-11T08:59:55;333.60;2329.60
70593;DHT22;58294;42.988;20.338;2023-03-11T09:02:25;333.50;2329.60
70593;DHT22;58294;42.988;20.338;2023-03-11T09:04:51;333.50;2329.60
70593;DHT22;58294;42.988;20.338;2023-03-11T09:07:17;333.50;2329.60
70593;DHT22;58294;42.988;20.338;2023-03-11T09:09:42;333.40;2329.60
70593;DHT22;58294;42.988;20.338;2023-03-11T09:12:08;333.30;2329.60
70593;DHT22;58294;42.988;20.338;2023-03-11T09:14:34;333.30;2329.60
70593;DHT22;58294;42.988;20.338;2023-03-11T09:17:01;333.30;2329.60
70593;DHT22;58294;42.988;20.338;2023-03-11T09:19:27;333.50;2329.60
70593;DHT22;58294;42.988;20.338;2023-03-11T09:21:53;333.50;2329.60
70593;DHT22;58294;42.988;20.338;2023-03-11T09:24:18;333.70;2329.60
70593;DHT22;58294;42.988;20.338;2023-03-11T09:26:44;333.70;2329.60
70593;DHT22;58294;42.988;20.338;2023-03-11T09:29:09;358.50;2329.60
70593;DHT22;58294;42.988;20.338;2023-03-11T09:31:35;358.50;2329.60
70593;DHT22;58294;42.988;20.338;2023-03-11T09:34:02;358.60;2329.60
70593;DHT22;58294;42.988;20.338;2023-03-11T09:36:28;358.70;2329.60
70593;DHT22;58294;42.988;20.338;2023-03-11T09:38:53;358.70;2329.60
70593;DHT22;58294;42.988;20.338;2023-03-11T09:41:21;358.90;2329.60
70593;DHT22;58294;42.988;20.338;2023-03-11T09:46:29;359.10;2329.60
70593;DHT22;58294;42.988;20.338;2023-03-11T09:51:27;359.10;2329.60
70593;DHT22;58294;42.988;20.338;2023-03-11T09:53:54;359.10;2329.60
70593;DHT22;58294;42.988;20.338;2023-03-11T09:56:20;359.10;2329.60
70593;DHT22;58294;42.988;20.338;2023-03-11T09:58:47;359.00;2329.60
70593;DHT22;58294;42.988;20.338;2023-03-11T10:01:28;359.00;2329.60
70593;DHT22;58294;42.988;20.338;2023-03-11T10:03:55;359.10;2329.60
70593;DHT22;58294;42.988;20.338;2023-03-11T10:06:27;359.10;2329.60
70593;DHT22;58294;42.988;20.338;2023-03-11T10:11:31;359.30;2329.60
70593;DHT22;58294;42.988;20.338;2023-03-11T10:14:11;359.30;2329.60
70593;DHT22;58294;42.988;20.338;2023-03-11T10:16:46;384.20;2329.60
70593;DHT22;58294;42.988;20.338;2023-03-11T10:22:01;384.00;2329.60
70593;DHT22;58294;42.988;20.338;2023-03-11T10:35:23;358.90;2329.60
70593;DHT22;58294;42.988;20.338;2023-03-11T10:38:04;358.90;2329.60
70593;DHT22;58294;42.988;20.338;2023-03-11T10:40:33;358.90;2329.60
70593;DHT22;58294;42.988;20.338;2023-03-11T10:43:00;358.70;2329.60
70593;DHT22;58294;42.988;20.338;2023-03-11T10:45:28;358.60;2329.60
70593;DHT22;58294;42.988;20.338;2023-03-11T10:47:57;358.60;2329.60
70593;DHT22;58294;42.988;20.338;2023-03-11T10:50:23;358.50;2329.60
70593;DHT22;58294;42.988;20.338;2023-03-11T10:53:07;358.40;2329.60
70593;DHT22;58294;42.988;20.338;2023-03-11T10:55:33;333.70;2329.60
70593;DHT22;58294;42.988;20.338;2023-03-11T10:58:03;333.50;2329.60
70593;DHT22;58294;42.988;20.338;2023-03-11T11:00:29;333.30;2329.60
70593;DHT22;58294;42.988;20.338;2023-03-11T11:02:56;333.40;2329.60
70593;DHT22;58294;42.988;20.338;2023-03-11T11:05:26;333.40;2329.60
70593;DHT22;58294;42.988;20.338;2023-03-11T11:08:01;333.40;2329.60
70593;DHT22;58294;42.988;20.338;2023-03-11T11:10:30;333.40;2329.60
70593;DHT22;58294;42.988;20.338;2023-03-11T11:13:00;333.40;2329.60
70593;DHT22;58294;42.988;20.338;2023-03-11T11:15:36;333.40;2329.60
70593;DHT22;58294;42.988;20.338;2023-03-11T11:18:05;333.30;2329.60
70593;DHT22;58294;42.988;20.338;2023-03-11T11:20:31;333.40;2329.60
70593;DHT22;58294;42.988;20.338;2023-03-11T11:22:58;333.50;2329.60
70593;DHT22;58294;42.988;20.338;2023-03-11T11:25:31;333.60;2329.60
70593;DHT22;58294;42.988;20.338;2023-03-11T11:28:17;333.70;2329.60
70593;DHT22;58294;42.988;20.338;2023-03-11T11:30:53;333.70;2329.60
70593;DHT22;58294;42.988;20.338;2023-03-11T11:33:25;333.70;2329.60
70593;DHT22;58294;42.988;20.338;2023-03-11T11:35:51;333.70;2329.60
70593;DHT22;58294;42.988;20.338;2023-03-11T11:38:20;333.60;2329.60
70593;DHT22;58294;42.988;20.338;2023-03-11T11:40:46;333.60;2329.60
70593;DHT22;58294;42.988;20.338;2023-03-11T11:43:16;333.70;2329.60
70593;DHT22;58294;42.988;20.338;2023-03-11T11:45:45;333.70;2329.60
70593;DHT22;58294;42.988;20.338;2023-03-11T11:48:20;333.70;2329.60
70593;DHT22;58294;42.988;20.338;2023-03-11T11:50:54;333.70;2329.60
70593;DHT22;58294;42.988;20.338;2023-03-11T11:55:47;333.60;2329.60
70593;DHT22;58294;42.988;20.338;2023-03-11T11:58:13;333.50;2329.60
70593;DHT22;58294;42.988;20.338;2023-03-11T12:05:35;333.40;2329.60
70593;DHT22;58294;42.988;20.338;2023-03-11T12:18:20;358.40;2329.60
70593;DHT22;58294;42.988;20.338;2023-03-11T12:20:57;358.60;2329.60
70593;DHT22;58294;42.988;20.338;2023-03-11T12:23:27;358.80;2329.60
70593;DHT22;58294;42.988;20.338;2023-03-11T12:25:59;359.10;2329.60
70593;DHT22;58294;42.988;20.338;2023-03-11T12:30:57;359.30;2329.60
70593;DHT22;58294;42.988;20.338;2023-03-11T12:33:38;359.30;2329.60
70593;DHT22;58294;42.988;20.338;2023-03-11T12:36:04;359.20;2329.60
70593;DHT22;58294;42.988;20.338;2023-03-11T12:38:37;359.20;2329.60
70593;DHT22;58294;42.988;20.338;2023-03-11T12:41:07;359.20;2329.60
70593;DHT22;58294;42.988;20.338;2023-03-11T12:45:59;359.10;2329.60
70593;DHT22;58294;42.988;20.338;2023-03-11T12:50:53;359.10;2329.60
70593;DHT22;58294;42.988;20.338;2023-03-11T12:53:19;359.10;2329.60
70593;DHT22;58294;42.988;20.338;2023-03-11T12:55:55;358.90;2329.60
70593;DHT22;58294;42.988;20.338;2023-03-11T12:58:29;358.70;2329.60
70593;DHT22;58294;42.988;20.338;2023-03-11T13:01:57;358.50;2329.60
70593;DHT22;58294;42.988;20.338;2023-03-11T13:03:55;358.50;2329.60
70593;DHT22;58294;42.988;20.338;2023-03-11T13:08:54;358.40;2329.60
70593;DHT22;58294;42.988;20.338;2023-03-11T13:11:32;333.70;2329.60
70593;DHT22;58294;42.988;20.338;2023-03-11T13:16:40;358.40;2329.60
70593;DHT22;58294;42.988;20.338;2023-03-11T13:21:54;358.50;2329.60
70593;DHT22;58294;42.988;20.338;2023-03-11T13:26:54;358.60;2329.60
70593;DHT22;58294;42.988;20.338;2023-03-11T13:40:12;358.80;2329.60
70593;DHT22;58294;42.988;20.338;2023-03-11T13:42:43;358.70;2329.60
70593;DHT22;58294;42.988;20.338;2023-03-11T13:45:31;358.60;2329.60
70593;DHT22;58294;42.988;20.338;2023-03-11T13:47:57;358.50;2329.60
70593;DHT22;58294;42.988;20.338;2023-03-11T13:50:34;358.50;2329.60
70593;DHT22;58294;42.988;20.338;2023-03-11T13:53:01;358.40;2329.60
70593;DHT22;58294;42.988;20.338;2023-03-11T13:55:32;333.70;2329.60
70593;DHT22;58294;42.988;20.338;2023-03-11T13:57:59;333.70;2329.60
70593;DHT22;58294;42.988;20.338;2023-03-11T14:00:26;333.70;2329.60
70593;DHT22;58294;42.988;20.338;2023-03-11T14:02:53;333.50;2329.60
70593;DHT22;58294;42.988;20.338;2023-03-11T14:05:43;333.20;2329.60
70593;DHT22;58294;42.988;20.338;2023-03-11T14:13:21;307.80;2304.00
70593;DHT22;58294;42.988;20.338;2023-03-11T14:16:08;307.60;2304.00
70593;DHT22;58294;42.988;20.338;2023-03-11T14:18:34;307.40;2304.00
70593;DHT22;58294;42.988;20.338;2023-03-11T14:21:01;307.20;2304.00
70593;DHT22;58294;42.988;20.338;2023-03-11T14:23:29;282.30;2278.40
70593;DHT22;58294;42.988;20.338;2023-03-11T14:25:58;282.20;2278.40
70593;DHT22;58294;42.988;20.338;2023-03-11T14:28:24;282.00;2278.40
70593;DHT22;58294;42.988;20.338;2023-03-11T14:30:54;281.60;2278.40
70593;DHT22;58294;42.988;20.338;2023-03-11T14:33:21;256.60;2252.80
70593;DHT22;58294;42.988;20.338;2023-03-11T14:36:20;256.50;2252.80
70593;DHT22;58294;42.988;20.338;2023-03-11T14:38:41;256.40;2252.80
70593;DHT22;58294;42.988;20.338;2023-03-11T14:41:09;256.30;2252.80
70593;DHT22;58294;42.988;20.338;2023-03-11T14:43:37;256.10;2252.80
70593;DHT22;58294;42.988;20.338;2023-03-11T14:46:04;231.10;2252.80
70593;DHT22;58294;42.988;20.338;2023-03-11T14:48:31;231.00;2252.80
70593;DHT22;58294;42.988;20.338;2023-03-11T14:50:57;230.70;2252.80
70593;DHT22;58294;42.988;20.338;2023-03-11T14:53:29;230.50;2252.80
70593;DHT22;58294;42.988;20.338;2023-03-11T14:56:01;205.60;2252.80
70593;DHT22;58294;42.988;20.338;2023-03-11T14:58:33;205.60;2252.80
70593;DHT22;58294;42.988;20.338;2023-03-11T15:01:04;205.30;2252.80
70593;DHT22;58294;42.988;20.338;2023-03-11T15:03:32;205.20;2252.80
70593;DHT22;58294;42.988;20.338;2023-03-11T15:05:59;205.10;2252.80
70593;DHT22;58294;42.988;20.338;2023-03-11T15:08:29;204.90;2252.80
70593;DHT22;58294;42.988;20.338;2023-03-11T15:11:37;204.80;2252.80
70593;DHT22;58294;42.988;20.338;2023-03-11T15:13:45;204.80;2252.80
70593;DHT22;58294;42.988;20.338;2023-03-11T15:18:57;179.90;2252.80
70593;DHT22;58294;42.988;20.338;2023-03-11T15:21:23;179.90;2252.80
70593;DHT22;58294;42.988;20.338;2023-03-11T15:24:02;179.80;2252.80
70593;DHT22;58294;42.988;20.338;2023-03-11T15:26:32;179.90;2252.80
70593;DHT22;58294;42.988;20.338;2023-03-11T15:28:58;179.90;2252.80
70593;DHT22;58294;42.988;20.338;2023-03-11T15:31:26;180.00;2252.80
70593;DHT22;58294;42.988;20.338;2023-03-11T15:34:06;180.00;2252.80
70593;DHT22;58294;42.988;20.338;2023-03-11T15:36:33;180.10;2252.80
70593;DHT22;58294;42.988;20.338;2023-03-11T15:44:26;204.80;2252.80
70593;DHT22;58294;42.988;20.338;2023-03-11T15:46:53;204.80;2252.80
70593;DHT22;58294;42.988;20.338;2023-03-11T15:49:19;204.80;2252.80
70593;DHT22;58294;42.988;20.338;2023-03-11T15:51:45;204.90;2252.80
70593;DHT22;58294;42.988;20.338;2023-03-11T15:54:10;204.90;2252.80
70593;DHT22;58294;42.988;20.338;2023-03-11T15:56:36;205.00;2252.80
70593;DHT22;58294;42.988;20.338;2023-03-11T15:59:02;205.00;2252.80
70593;DHT22;58294;42.988;20.338;2023-03-11T16:01:27;205.00;2252.80
70593;DHT22;58294;42.988;20.338;2023-03-11T16:03:54;204.90;2252.80
70593;DHT22;58294;42.988;20.338;2023-03-11T16:06:20;205.00;2252.80
70593;DHT22;58294;42.988;20.338;2023-03-11T16:08:48;205.00;2252.80